createdAt,value
2019-06-07T00:01:54.513Z,11.31
2019-06-07T00:05:09.985Z,11.30
2019-06-07T00:08:28.530Z,11.28
2019-06-07T00:11:39.558Z,11.27
2019-06-07T00:14:53.067Z,11.23
2019-06-07T00:18:11.167Z,11.16
2019-06-07T00:22:12.005Z,11.13
2019-06-07T00:24:38.322Z,11.10
2019-06-07T00:27:51.931Z,11.08
2019-06-07T00:31:05.884Z,11.05
2019-06-07T00:34:22.575Z,10.96
2019-06-07T00:37:35.246Z,10.87
2019-06-07T00:40:48.945Z,10.81
2019-06-07T00:44:02.683Z,10.75
2019-06-07T00:47:18.746Z,10.68
2019-06-07T00:50:31.618Z,10.68
2019-06-07T00:53:45.322Z,10.69
2019-06-07T00:56:58.866Z,10.71
2019-06-07T01:00:18.321Z,10.68
2019-06-07T01:03:30.409Z,10.66
2019-06-07T01:06:44.372Z,10.59
2019-06-07T01:09:57.906Z,10.55
2019-06-07T01:13:11.857Z,10.54
2019-06-07T01:16:26.385Z,10.51
2019-06-07T01:19:40.343Z,10.46
2019-06-07T01:22:54.055Z,10.42
2019-06-07T01:26:07.676Z,10.39
2019-06-07T01:29:22.257Z,10.31
2019-06-07T01:32:36.614Z,10.28
2019-06-07T01:35:50.130Z,10.25
2019-06-07T01:39:05.542Z,10.20
2019-06-07T01:42:20.383Z,10.14
2019-06-07T01:45:34.938Z,10.09
2019-06-07T01:48:49.800Z,10.05
2019-06-07T01:52:03.774Z,10.00
2019-06-07T01:55:18.811Z,9.96
2019-06-07T01:58:32.835Z,9.93
2019-06-07T02:01:46.361Z,9.88
2019-06-07T02:04:59.972Z,9.86
2019-06-07T02:08:13.681Z,9.86
2019-06-07T02:11:29.321Z,9.85
2019-06-07T02:14:43.020Z,9.81
2019-06-07T02:17:56.580Z,9.78
2019-06-07T02:21:10.445Z,9.75
2019-06-07T02:24:25.253Z,9.73
2019-06-07T02:27:39.382Z,9.71
2019-06-07T02:30:59.910Z,9.68
2019-06-07T02:34:08.396Z,9.62
2019-06-07T02:37:24.203Z,9.57
2019-06-07T02:40:37.768Z,9.51
2019-06-07T02:43:51.373Z,9.48
2019-06-07T02:47:05.122Z,9.43
2019-06-07T02:50:20.834Z,9.36
2019-06-07T02:53:40.136Z,9.27
2019-06-07T02:56:58.167Z,9.18
2019-06-07T03:00:27.351Z,9.11
2019-06-07T03:03:22.321Z,9.08
2019-06-07T03:06:42.789Z,9.08
2019-06-07T03:09:54.885Z,9.12
2019-06-07T03:13:11.228Z,9.17
2019-06-07T03:16:33.515Z,9.25
2019-06-07T03:19:47.806Z,9.33
2019-06-07T03:23:03.559Z,9.35
2019-06-07T03:26:17.585Z,9.38
2019-06-07T03:29:32.270Z,9.41
2019-06-07T03:32:48.400Z,9.40
2019-06-07T03:36:22.928Z,9.45
2019-06-07T03:39:18.463Z,9.47
2019-06-07T03:42:34.826Z,9.53
2019-06-07T03:45:48.128Z,9.60
2019-06-07T03:49:02.372Z,9.66
2019-06-07T03:52:16.070Z,9.71
2019-06-07T03:55:30.448Z,9.78
2019-06-07T03:58:49.677Z,9.78
2019-06-07T04:02:01.148Z,9.77
2019-06-07T04:05:14.775Z,9.78
2019-06-07T04:08:28.382Z,9.84
2019-06-07T04:11:41.888Z,9.88
2019-06-07T04:14:55.677Z,9.96
2019-06-07T04:18:09.401Z,10.03
2019-06-07T04:21:22.928Z,10.09
2019-06-07T04:24:40.208Z,10.15
2019-06-07T04:27:52.792Z,10.21
2019-06-07T04:31:07.071Z,10.25
2019-06-07T04:34:21.005Z,10.30
2019-06-07T04:37:39.670Z,10.34
2019-06-07T04:40:52.791Z,10.36
2019-06-07T04:44:08.006Z,10.37
2019-06-07T04:47:25.167Z,10.35
2019-06-07T04:50:43.457Z,10.37
2019-06-07T04:53:54.188Z,10.40
2019-06-07T04:57:07.700Z,10.48
2019-06-07T05:03:44.650Z,10.53
2019-06-07T05:06:58.163Z,10.64
2019-06-07T05:10:11.974Z,10.68
2019-06-07T05:16:43.697Z,10.76
2019-06-07T05:19:55.320Z,10.74
2019-06-07T05:23:08.925Z,10.82
2019-06-07T05:26:22.786Z,10.95
2019-06-07T05:29:37.223Z,11.05
2019-06-07T05:32:51.725Z,11.15
2019-06-07T05:36:05.789Z,11.25
2019-06-07T05:39:19.560Z,11.34
2019-06-07T05:42:37.019Z,11.43
2019-06-07T05:45:49.260Z,11.59
2019-06-07T05:49:03.158Z,11.70
2019-06-07T05:52:17.136Z,11.73
2019-06-07T05:55:30.808Z,11.82
2019-06-07T05:58:44.806Z,11.88
2019-06-07T06:02:05.017Z,11.97
2019-06-07T06:05:32.530Z,12.08
2019-06-07T06:08:30.131Z,12.22
2019-06-07T06:11:59.718Z,12.27
2019-06-07T06:15:03.113Z,12.28
2019-06-07T06:18:16.961Z,12.35
2019-06-07T06:21:30.916Z,12.48
2019-06-07T06:25:17.149Z,12.49
2019-06-07T06:28:10.849Z,12.54
2019-06-07T06:31:15.636Z,12.68
2019-06-07T06:34:29.435Z,12.94
2019-06-07T06:37:47.133Z,13.04
2019-06-07T06:41:14.655Z,13.19
2019-06-07T06:44:14.401Z,13.23
2019-06-07T06:47:28.641Z,13.30
2019-06-07T06:50:44.400Z,13.47
2019-06-07T06:53:57.710Z,13.62
2019-06-07T06:57:19.795Z,13.78
2019-06-07T07:01:05.305Z,14.03
2019-06-07T07:04:12.772Z,14.20
2019-06-07T07:07:25.045Z,14.51
2019-06-07T07:10:40.733Z,14.82
2019-06-07T07:13:56.906Z,14.93
2019-06-07T07:17:10.694Z,14.99
2019-06-07T07:20:24.792Z,14.98
2019-06-07T07:23:38.544Z,15.13
2019-06-07T07:26:53.925Z,15.12
2019-06-07T07:30:36.075Z,15.23
2019-06-07T07:33:25.053Z,15.27
2019-06-07T07:36:40.033Z,15.39
2019-06-07T07:40:01.169Z,15.49
2019-06-07T07:43:09.514Z,15.47
2019-06-07T07:46:29.536Z,15.53
2019-06-07T07:49:38.777Z,15.61
2019-06-07T07:52:56.028Z,15.99
2019-06-07T07:56:08.340Z,16.12
2019-06-07T07:59:40.743Z,16.20
2019-06-07T08:02:37.833Z,16.19
2019-06-07T08:05:54.008Z,16.17
2019-06-07T08:09:07.309Z,16.14
2019-06-07T08:12:21.261Z,16.29
2019-06-07T08:15:34.986Z,16.53
2019-06-07T08:18:51.323Z,16.81
2019-06-07T08:22:04.358Z,16.83
2019-06-07T08:25:18.489Z,17.00
2019-06-07T08:28:32.147Z,17.05
2019-06-07T08:31:45.903Z,17.00
2019-06-07T08:35:05.860Z,17.14
2019-06-07T08:38:26.742Z,17.16
2019-06-07T08:41:31.186Z,17.16
2019-06-07T08:44:44.686Z,17.26
2019-06-07T08:48:09.131Z,17.50
2019-06-07T08:51:13.775Z,17.81
2019-06-07T08:54:27.391Z,17.91
2019-06-07T08:57:41.145Z,18.27
2019-06-07T09:00:58.097Z,18.18
2019-06-07T09:04:11.288Z,18.30
2019-06-07T09:07:25.239Z,18.51
2019-06-07T09:10:38.831Z,18.85
2019-06-07T09:13:54.469Z,18.87
2019-06-07T09:17:12.056Z,18.72
2019-06-07T09:20:36.887Z,18.62
2019-06-07T09:23:44.065Z,18.66
2019-06-07T09:27:00.238Z,18.89
2019-06-07T09:30:18.789Z,19.05
2019-06-07T09:33:31.722Z,19.17
2019-06-07T09:36:45.772Z,19.27
2019-06-07T09:40:10.736Z,19.55
2019-06-07T09:46:31.083Z,19.87
2019-06-07T09:49:44.906Z,19.88
2019-06-07T09:53:10.551Z,20.05
2019-06-07T09:56:14.019Z,20.17
2019-06-07T09:59:28.287Z,20.19
2019-06-07T10:02:42.016Z,20.35
2019-06-07T10:05:55.574Z,20.24
2019-06-07T10:12:25.290Z,20.32
2019-06-07T10:15:39.127Z,20.43
2019-06-07T10:18:52.823Z,20.63
2019-06-07T10:22:07.810Z,20.78
2019-06-07T10:25:24.623Z,20.80
2019-06-07T10:32:30.463Z,20.97
2019-06-07T10:35:44.433Z,21.36
2019-06-07T10:38:58.093Z,21.51
2019-06-07T10:42:11.855Z,21.76
2019-06-07T10:45:25.440Z,22.24
2019-06-07T10:48:39.113Z,22.54
2019-06-07T10:51:52.894Z,22.35
2019-06-07T10:55:06.835Z,22.33
2019-06-07T10:58:20.481Z,22.10
2019-06-07T11:01:34.060Z,22.42
2019-06-07T11:04:47.563Z,22.40
2019-06-07T11:08:01.356Z,22.41
2019-06-07T11:11:15.169Z,22.58
2019-06-07T11:14:28.674Z,22.72
2019-06-07T11:17:42.341Z,22.95
2019-06-07T11:20:55.851Z,23.14
2019-06-07T11:24:10.165Z,23.29
2019-06-07T11:27:24.025Z,23.40
2019-06-07T11:30:37.794Z,23.58
2019-06-07T11:33:51.423Z,23.62
2019-06-07T11:37:07.188Z,23.56
2019-06-07T11:40:35.292Z,23.72
2019-06-07T11:43:37.430Z,23.87
2019-06-07T11:46:51.402Z,23.87
2019-06-07T11:50:05.192Z,23.97
2019-06-07T11:53:19.992Z,24.20
2019-06-07T11:56:36.220Z,24.32
2019-06-07T11:59:49.914Z,24.35
2019-06-07T12:03:03.586Z,24.25
2019-06-07T12:06:18.118Z,24.34
2019-06-07T12:09:32.036Z,24.51
2019-06-07T12:16:39.986Z,24.90
2019-06-07T12:19:53.589Z,24.74
2019-06-07T12:23:07.229Z,24.84
2019-06-07T12:26:20.945Z,24.91
2019-06-07T12:29:34.727Z,25.06
2019-06-07T12:32:48.281Z,25.21
2019-06-07T12:36:02.361Z,25.30
2019-06-07T12:39:16.110Z,25.24
2019-06-07T12:42:30.102Z,25.23
2019-06-07T12:45:45.406Z,25.20
2019-06-07T12:48:59.364Z,25.34
2019-06-07T12:52:14.649Z,25.38
2019-06-07T12:55:28.705Z,25.46
2019-06-07T12:58:42.642Z,25.82
2019-06-07T13:02:01.830Z,26.03
2019-06-07T13:05:12.402Z,26.01
2019-06-07T13:08:26.427Z,26.03
2019-06-07T13:11:40.064Z,26.19
2019-06-07T13:14:53.596Z,26.26
2019-06-07T13:18:07.332Z,26.23
2019-06-07T13:21:22.277Z,26.24
2019-06-07T13:24:36.522Z,26.21
2019-06-07T13:27:51.970Z,26.37
2019-06-07T13:31:05.977Z,26.41
2019-06-07T13:34:20.499Z,26.31
2019-06-07T13:37:36.488Z,26.25
2019-06-07T13:40:50.184Z,26.40
2019-06-07T13:44:45.852Z,26.78
2019-06-07T13:47:59.810Z,26.85
2019-06-07T13:51:13.718Z,26.93
2019-06-07T13:54:27.841Z,27.00
2019-06-07T13:57:41.547Z,27.00
2019-06-07T14:00:55.154Z,26.99
2019-06-07T14:04:09.250Z,27.21
2019-06-07T14:07:23.596Z,27.21
2019-06-07T14:10:38.691Z,27.05
2019-06-07T14:13:52.622Z,26.90
2019-06-07T14:17:06.423Z,26.71
2019-06-07T14:20:26.672Z,26.85
2019-06-07T14:23:48.354Z,27.18
2019-06-07T14:27:05.810Z,27.13
2019-06-07T14:30:21.684Z,27.26
2019-06-07T14:33:35.647Z,27.15
2019-06-07T14:36:49.424Z,26.80
2019-06-07T14:40:04.070Z,26.69
2019-06-07T14:43:17.986Z,26.41
2019-06-07T14:46:32.160Z,26.13
2019-06-07T14:49:46.408Z,25.88
2019-06-07T14:53:00.320Z,25.81
2019-06-07T14:56:13.859Z,25.75
2019-06-07T14:59:28.320Z,25.66
2019-06-07T15:02:42.023Z,25.57
2019-06-07T15:05:55.936Z,25.45
2019-06-07T15:09:09.722Z,25.33
2019-06-07T15:12:25.451Z,25.11
2019-06-07T15:15:39.053Z,24.69
2019-06-07T15:18:52.605Z,23.68
2019-06-07T15:22:06.498Z,22.89
2019-06-07T15:25:20.129Z,22.37
2019-06-07T15:28:34.171Z,21.59
2019-06-07T15:31:48.150Z,20.81
2019-06-07T15:35:01.922Z,20.23
2019-06-07T15:38:15.745Z,19.79
2019-06-07T15:41:30.959Z,19.44
2019-06-07T15:44:44.549Z,19.15
2019-06-07T15:47:58.462Z,19.13
2019-06-07T15:51:12.410Z,19.31
2019-06-07T15:54:25.965Z,19.45
2019-06-07T15:57:41.537Z,19.71
2019-06-07T16:00:55.444Z,20.09
2019-06-07T16:04:09.221Z,20.39
2019-06-07T16:07:23.166Z,20.76
2019-06-07T16:10:37.084Z,20.94
2019-06-07T16:13:57.571Z,21.16
2019-06-07T16:17:25.028Z,21.44
2019-06-07T16:20:47.932Z,21.48
2019-06-07T16:24:04.088Z,21.11
2019-06-07T16:27:22.523Z,20.37
2019-06-07T16:31:09.334Z,19.59
2019-06-07T16:34:27.805Z,18.71
2019-06-07T16:37:43.045Z,17.72
2019-06-07T16:41:00.001Z,17.07
2019-06-07T16:44:15.935Z,16.57
2019-06-07T16:47:31.167Z,16.27
2019-06-07T16:50:47.220Z,16.01
2019-06-07T16:54:02.643Z,15.81
2019-06-07T16:57:17.651Z,15.62
2019-06-07T17:00:35.010Z,15.27
2019-06-07T17:03:49.839Z,15.03
2019-06-07T17:07:05.561Z,14.80
2019-06-07T17:10:20.464Z,14.73
2019-06-07T17:13:36.789Z,14.68
2019-06-07T17:16:52.159Z,14.56
2019-06-07T17:20:08.264Z,14.23
2019-06-07T17:23:24.692Z,13.84
2019-06-07T17:26:39.595Z,13.63
2019-06-07T17:29:56.560Z,13.51
2019-06-07T17:33:12.916Z,13.36
2019-06-07T17:36:29.436Z,13.39
2019-06-07T17:39:44.993Z,13.47
2019-06-07T17:43:01.128Z,13.51
2019-06-07T17:46:16.793Z,13.62
2019-06-07T17:49:31.973Z,13.58
2019-06-07T17:52:47.922Z,13.52
2019-06-07T17:56:02.843Z,13.48
2019-06-07T17:59:18.543Z,13.53
2019-06-07T18:02:34.249Z,13.58
2019-06-07T18:05:49.391Z,13.45
2019-06-07T18:09:07.039Z,13.40
2019-06-07T18:12:22.963Z,13.34
2019-06-07T18:15:39.048Z,13.28
2019-06-07T18:18:54.856Z,13.30
2019-06-07T18:22:09.611Z,13.39
2019-06-07T18:25:25.429Z,13.44
2019-06-07T18:28:40.567Z,13.40
2019-06-07T18:31:55.759Z,13.34
2019-06-07T18:35:10.708Z,13.20
2019-06-07T18:38:25.613Z,12.99
2019-06-07T18:41:40.254Z,12.85
2019-06-07T18:44:55.511Z,12.78
2019-06-07T18:48:10.593Z,12.73
2019-06-07T18:51:25.894Z,12.74
2019-06-07T18:54:41.060Z,12.72
2019-06-07T18:57:56.507Z,12.72
2019-06-07T19:01:12.149Z,12.61
2019-06-07T19:04:28.559Z,12.54
2019-06-07T19:07:43.213Z,12.65
2019-06-07T19:10:58.996Z,12.72
2019-06-07T19:14:13.689Z,12.69
2019-06-07T19:17:29.278Z,12.67
2019-06-07T19:20:44.126Z,12.64
2019-06-07T19:24:00.104Z,12.63
2019-06-07T19:27:17.227Z,12.57
2019-06-07T19:30:32.300Z,12.65
2019-06-07T19:33:49.307Z,12.67
2019-06-07T19:37:05.024Z,12.71
2019-06-07T19:40:20.774Z,12.67
2019-06-07T19:43:35.682Z,12.58
2019-06-07T19:46:52.201Z,12.52
2019-06-07T19:50:09.717Z,12.56
2019-06-07T19:53:25.895Z,12.55
2019-06-07T19:56:40.761Z,12.50
2019-06-07T19:59:55.551Z,12.47
2019-06-07T20:03:10.912Z,12.48
2019-06-07T20:06:25.900Z,12.52
2019-06-07T20:09:40.636Z,12.59
2019-06-07T20:12:56.590Z,12.58
2019-06-07T20:16:11.800Z,12.64
2019-06-07T20:19:26.844Z,12.71
2019-06-07T20:22:41.823Z,12.80
2019-06-07T20:25:56.689Z,12.77
2019-06-07T20:29:25.535Z,12.76
2019-06-07T20:32:29.660Z,12.80
2019-06-07T20:35:44.917Z,12.93
2019-06-07T20:39:00.174Z,13.07
2019-06-07T20:42:16.275Z,13.18
2019-06-07T20:45:33.930Z,13.28
2019-06-07T20:48:49.365Z,13.33
2019-06-07T20:52:04.886Z,13.40
2019-06-07T20:55:20.282Z,13.44
2019-06-07T20:58:35.321Z,13.54
2019-06-07T21:01:52.154Z,13.64
2019-06-07T21:05:07.900Z,13.73
2019-06-07T21:08:22.914Z,13.82
2019-06-07T21:11:38.651Z,13.83
2019-06-07T21:16:44.608Z,13.90
2019-06-07T21:20:00.541Z,13.87
2019-06-07T21:23:15.452Z,13.85
2019-06-07T21:26:30.493Z,13.85
2019-06-07T21:29:45.288Z,13.84
2019-06-07T21:33:01.354Z,13.87
2019-06-07T21:36:16.975Z,13.89
2019-06-07T21:39:32.126Z,13.97
2019-06-07T21:42:47.079Z,13.97
2019-06-07T21:46:07.237Z,13.93
2019-06-07T21:49:19.582Z,13.92
2019-06-07T21:52:34.282Z,13.88
2019-06-07T21:55:49.089Z,13.88
2019-06-07T21:59:05.055Z,13.88
2019-06-07T22:02:21.143Z,13.87
2019-06-07T22:05:36.156Z,13.92
2019-06-07T22:08:51.056Z,13.85
2019-06-07T22:12:10.038Z,13.72
2019-06-07T22:15:34.046Z,13.71
2019-06-07T22:18:42.708Z,13.76
2019-06-07T22:22:02.783Z,13.77
2019-06-07T22:25:15.899Z,13.78
2019-06-07T22:28:30.752Z,13.73
2019-06-07T22:31:46.233Z,13.77
2019-06-07T22:35:01.321Z,13.78
2019-06-07T22:38:16.183Z,13.83
2019-06-07T22:41:30.928Z,13.82
2019-06-07T22:44:45.697Z,13.86
2019-06-07T22:48:00.877Z,13.82
2019-06-07T22:51:16.486Z,13.89
2019-06-07T22:54:32.838Z,13.98
2019-06-07T22:57:56.992Z,14.05
2019-06-07T23:01:12.553Z,14.04
2019-06-07T23:04:27.766Z,14.05
2019-06-07T23:07:42.504Z,14.06
2019-06-07T23:10:57.377Z,14.08
2019-06-07T23:14:13.462Z,14.15
2019-06-07T23:17:28.068Z,14.22
2019-06-07T23:20:43.205Z,14.27
2019-06-07T23:23:58.050Z,14.31
2019-06-07T23:27:14.480Z,14.31
2019-06-07T23:30:31.173Z,14.38
2019-06-07T23:33:46.060Z,14.42
2019-06-07T23:37:00.850Z,14.46
2019-06-07T23:40:17.402Z,14.57
2019-06-07T23:43:33.269Z,14.53
2019-06-07T23:46:48.388Z,14.50
2019-06-07T23:50:03.618Z,14.57
2019-06-07T23:53:19.992Z,14.58
2019-06-07T23:56:34.851Z,14.56
2019-06-07T23:59:49.599Z,14.53
